Time;durP1;ratioP1;P1;durP2;ratioP2;P2;SDS_P1;SDS_P2;PMS_P1;PMS_P2;Temp;Humidity;BMP_temperature;BMP_pressure;BME280_temperature;BME280_humidity;BME280_pressure;Samples;Min_cycle;Max_cycle;Signal;HPM_P1;HPM_P2
2022/08/03 00:01:37;;;;;;;2.03;1.55;;;25.60;50.70;;;;;;4992966;28;88707;-78
2022/08/03 00:04:03;;;;;;;1.85;1.48;;;25.60;50.50;;;;;;4993111;28;87543;-78
2022/08/03 00:06:29;;;;;;;3.67;1.90;;;25.60;50.60;;;;;;4994728;28;86946;-78
2022/08/03 00:08:55;;;;;;;1.60;1.50;;;25.60;50.70;;;;;;4995053;28;87513;-79
2022/08/03 00:11:20;;;;;;;2.20;1.58;;;25.60;50.70;;;;;;4994734;28;87653;-79
2022/08/03 00:13:46;;;;;;;2.15;1.80;;;25.60;50.70;;;;;;4995485;28;87366;-79
2022/08/03 00:16:12;;;;;;;2.17;1.50;;;25.60;50.70;;;;;;4994398;28;88706;-78
2022/08/03 00:18:38;;;;;;;2.55;1.67;;;25.60;50.80;;;;;;4994432;28;86970;-79
2022/08/03 00:21:04;;;;;;;1.95;1.40;;;25.60;50.80;;;;;;4994893;28;88364;-78
2022/08/03 00:23:30;;;;;;;1.85;1.50;;;25.60;50.80;;;;;;4994404;28;89021;-79
2022/08/03 00:25:56;;;;;;;1.70;1.60;;;25.60;50.80;;;;;;4994195;28;87203;-79
2022/08/03 00:28:21;;;;;;;2.22;1.45;;;25.60;50.80;;;;;;4994671;28;87469;-79
2022/08/03 00:30:47;;;;;;;2.00;1.73;;;25.60;50.80;;;;;;4993797;28;87550;-79
2022/08/03 00:33:13;;;;;;;2.50;1.67;;;25.60;50.80;;;;;;4995066;28;87974;-78
2022/08/03 00:35:38;;;;;;;1.63;1.40;;;25.60;50.80;;;;;;4994494;28;86807;-79
2022/08/03 00:38:04;;;;;;;1.30;1.20;;;25.60;50.70;;;;;;4994291;28;87648;-79
2022/08/03 00:40:30;;;;;;;2.83;1.50;;;25.60;50.90;;;;;;4991186;28;92543;-78
2022/08/03 00:43:00;;;;;;;2.13;1.35;;;25.60;50.90;;;;;;4993738;28;88818;-79
2022/08/03 00:45:31;;;;;;;1.65;1.55;;;25.60;50.90;;;;;;4994549;28;86936;-79
2022/08/03 00:47:58;;;;;;;2.08;1.40;;;25.60;50.80;;;;;;4993919;28;86895;-78
2022/08/03 00:50:25;;;;;;;1.83;1.25;;;25.60;50.80;;;;;;4994686;28;88365;-79
2022/08/03 00:52:53;;;;;;;1.42;1.33;;;25.60;50.80;;;;;;4993397;28;87713;-78
2022/08/03 00:55:18;;;;;;;1.65;1.45;;;25.60;50.80;;;;;;4993163;28;86896;-79
2022/08/03 00:57:45;;;;;;;1.55;1.30;;;25.60;50.90;;;;;;4994314;28;89009;-79
2022/08/03 01:00:13;;;;;;;2.50;1.73;;;25.60;51.00;;;;;;4993907;28;87587;-78
2022/08/03 01:02:39;;;;;;;2.23;1.50;;;25.60;51.00;;;;;;4993673;28;88279;-78
2022/08/03 01:05:06;;;;;;;1.45;1.35;;;25.60;51.10;;;;;;4992862;28;87878;-78
2022/08/03 01:07:49;;;;;;;1.50;1.40;;;25.60;51.00;;;;;;4993941;28;89285;-78
2022/08/03 01:10:23;;;;;;;2.22;1.42;;;25.60;51.10;;;;;;4993449;28;87731;-79
2022/08/03 01:13:16;;;;;;;2.45;1.33;;;25.60;51.00;;;;;;4993180;28;87686;-78
2022/08/03 01:15:47;;;;;;;1.73;1.30;;;25.60;51.30;;;;;;4992923;28;86834;-79
2022/08/03 01:18:26;;;;;;;1.20;1.10;;;25.60;51.30;;;;;;4993393;28;87444;-79
2022/08/03 01:20:55;;;;;;;1.75;1.50;;;25.60;51.20;;;;;;4993074;28;88511;-78
2022/08/03 01:24:02;;;;;;;1.70;1.48;;;25.60;51.40;;;;;;4994256;28;87921;-79
2022/08/03 01:27:01;;;;;;;1.85;1.60;;;25.50;51.30;;;;;;4951291;28;86940;-79
2022/08/03 01:29:32;;;;;;;;;;;25.50;51.20;;;;;;4951553;28;87515;-79
2022/08/03 01:32:04;;;;;;;2.25;1.35;;;25.50;51.50;;;;;;4952498;28;88408;-78
2022/08/03 01:34:34;;;;;;;2.25;1.52;;;25.50;51.40;;;;;;4950664;28;92644;-78
2022/08/03 01:37:04;;;;;;;2.85;1.73;;;25.50;51.50;;;;;;4951072;28;87427;-79
2022/08/03 01:39:31;;;;;;;1.50;1.27;;;25.50;51.30;;;;;;4951893;28;87229;-79
2022/08/03 01:42:05;;;;;;;1.98;1.70;;;25.50;51.50;;;;;;4950692;28;87339;-78
2022/08/03 01:44:35;;;;;;;2.58;1.58;;;25.50;51.80;;;;;;4951649;28;87157;-79
2022/08/03 01:47:03;;;;;;;2.30;1.60;;;25.50;51.60;;;;;;4950940;28;88379;-78
2022/08/03 01:49:33;;;;;;;1.83;1.23;;;25.50;51.50;;;;;;4950711;28;86355;-79
2022/08/03 01:51:59;;;;;;;1.75;1.60;;;25.50;51.70;;;;;;4950787;28;87171;-79
2022/08/03 01:54:27;;;;;;;1.60;1.50;;;25.50;51.70;;;;;;4934782;28;90766;-78
2022/08/03 01:56:55;;;;;;;1.77;1.50;;;25.50;51.70;;;;;;4950406;28;88476;-78
2022/08/03 01:59:22;;;;;;;2.75;1.60;;;25.50;51.70;;;;;;4951708;28;87367;-79
2022/08/03 02:01:49;;;;;;;1.30;1.20;;;25.50;51.70;;;;;;4993348;28;89119;-79
2022/08/03 02:04:17;;;;;;;2.25;1.35;;;25.50;51.70;;;;;;4993406;28;88116;-79
2022/08/03 02:06:46;;;;;;;1.63;1.42;;;25.50;51.80;;;;;;4992756;28;87395;-78
2022/08/03 02:09:13;;;;;;;1.40;1.30;;;25.50;51.70;;;;;;4992961;28;87415;-79
2022/08/03 02:11:39;;;;;;;1.48;1.38;;;25.50;51.70;;;;;;4992952;28;87445;-78
2022/08/03 02:14:06;;;;;;;1.73;1.30;;;25.50;51.80;;;;;;4993325;28;88846;-78
2022/08/03 02:16:33;;;;;;;1.63;1.40;;;25.50;51.80;;;;;;4991162;28;86941;-78
2022/08/03 02:19:03;;;;;;;2.08;1.40;;;25.50;51.80;;;;;;4991467;28;87822;-78
2022/08/03 02:21:32;;;;;;;2.05;1.33;;;25.50;51.80;;;;;;4992152;28;89583;-78
2022/08/03 02:23:58;;;;;;;1.40;1.30;;;25.50;51.80;;;;;;4993135;28;87381;-78
2022/08/03 02:26:27;;;;;;;1.45;1.20;;;25.50;51.90;;;;;;4997089;28;86909;-78
2022/08/03 02:28:56;;;;;;;1.52;1.42;;;25.50;51.90;;;;;;4996720;28;87624;-79
2022/08/03 02:31:25;;;;;;;1.38;1.27;;;25.50;51.90;;;;;;4996304;28;88966;-79
2022/08/03 02:33:52;;;;;;;;;;;25.50;51.80;;;;;;4997071;28;87629;-78
2022/08/03 02:36:22;;;;;;;2.00;1.80;;;25.50;51.80;;;;;;4997935;28;87044;-79
2022/08/03 02:38:51;;;;;;;1.40;1.27;;;25.50;51.90;;;;;;4995874;28;87107;-78
2022/08/03 02:41:22;;;;;;;2.35;1.42;;;25.50;51.90;;;;;;4996350;28;89042;-79
2022/08/03 02:43:54;;;;;;;2.22;1.45;;;25.50;51.80;;;;;;4996467;28;87171;-79
2022/08/03 02:46:23;;;;;;;1.63;1.52;;;25.50;51.80;;;;;;4995666;28;87907;-78
2022/08/03 02:48:50;;;;;;;1.92;1.30;;;25.50;51.80;;;;;;4995819;28;87587;-79
2022/08/03 02:51:18;;;;;;;1.58;1.40;;;25.50;51.90;;;;;;4995119;28;87755;-79
2022/08/03 02:53:45;;;;;;;1.75;1.48;;;25.50;52.00;;;;;;4996590;28;87127;-78
2022/08/03 02:56:12;;;;;;;1.70;1.33;;;25.50;52.00;;;;;;4995894;28;86939;-79
2022/08/03 02:58:41;;;;;;;1.83;1.40;;;25.50;51.80;;;;;;4995238;28;88546;-78
2022/08/03 03:01:08;;;;;;;1.40;1.30;;;25.50;51.80;;;;;;4995862;28;88245;-78
2022/08/03 03:03:34;;;;;;;1.98;1.65;;;25.50;52.00;;;;;;4995877;28;89521;-79
2022/08/03 03:06:01;;;;;;;1.98;1.63;;;25.50;51.90;;;;;;4996883;28;87599;-78
2022/08/03 03:08:28;;;;;;;1.75;1.40;;;25.40;51.90;;;;;;4995248;28;87351;-78
2022/08/03 03:10:59;;;;;;;2.53;1.35;;;25.50;52.20;;;;;;4994693;28;90013;-78
2022/08/03 03:13:27;;;;;;;1.58;1.45;;;25.50;52.10;;;;;;4995438;28;87563;-78
2022/08/03 03:15:55;;;;;;;1.77;1.38;;;25.40;52.20;;;;;;4995507;28;87753;-77
2022/08/03 03:18:22;;;;;;;1.83;1.50;;;25.40;52.20;;;;;;4995516;28;87572;-79
2022/08/03 03:20:50;;;;;;;1.40;1.30;;;25.40;52.30;;;;;;4996020;28;87823;-78
2022/08/03 03:23:16;;;;;;;1.63;1.23;;;25.40;52.10;;;;;;4995143;28;90155;-78
2022/08/03 03:25:43;;;;;;;1.40;1.25;;;25.40;52.20;;;;;;4995539;28;87241;-77
2022/08/03 03:28:10;;;;;;;2.65;1.30;;;25.50;52.20;;;;;;4995817;28;87193;-78
2022/08/03 03:30:35;;;;;;;1.48;1.30;;;25.50;52.20;;;;;;4995335;28;88061;-78
2022/08/03 03:33:01;;;;;;;1.30;1.10;;;25.50;52.20;;;;;;4995103;28;87306;-78
2022/08/03 03:35:27;;;;;;;1.77;1.20;;;25.50;52.80;;;;;;4994304;28;88408;-78
2022/08/03 03:37:53;;;;;;;1.40;1.30;;;25.40;52.20;;;;;;4995265;28;87498;-78
2022/08/03 03:40:20;;;;;;;1.48;1.38;;;25.40;52.40;;;;;;4993919;28;88093;-78
2022/08/03 03:42:46;;;;;;;1.85;1.30;;;25.40;52.40;;;;;;4995130;28;87796;-78
2022/08/03 03:45:12;;;;;;;1.50;1.40;;;25.40;52.50;;;;;;4996029;28;87372;-78
2022/08/03 03:47:38;;;;;;;1.20;1.10;;;25.40;52.30;;;;;;4995505;28;86858;-79
2022/08/03 03:50:05;;;;;;;1.77;1.48;;;25.40;52.40;;;;;;4993985;28;88660;-78
2022/08/03 03:52:32;;;;;;;1.70;1.15;;;25.40;52.40;;;;;;4994499;28;90366;-78
2022/08/03 03:54:58;;;;;;;1.50;1.35;;;25.40;52.50;;;;;;4995351;28;86887;-78
2022/08/03 03:57:23;;;;;;;2.05;1.30;;;25.40;52.50;;;;;;4994566;28;88010;-78
2022/08/03 03:59:49;;;;;;;1.50;1.40;;;25.40;52.50;;;;;;4994358;28;89737;-78
2022/08/03 04:02:14;;;;;;;1.40;1.30;;;25.40;52.60;;;;;;4995693;28;88081;-77
2022/08/03 04:13:01;;;;;;;1.83;1.30;;;25.40;52.70;;;;;;4994205;28;87279;-78
2022/08/03 04:15:27;;;;;;;1.60;1.20;;;25.40;52.70;;;;;;4994895;28;87474;-78
2022/08/03 04:17:56;;;;;;;1.40;1.30;;;25.40;52.70;;;;;;4994811;28;86647;-78
2022/08/03 04:20:22;;;;;;;1.40;1.30;;;25.40;52.60;;;;;;4994780;28;87517;-78
2022/08/03 04:22:50;;;;;;;1.83;1.40;;;25.40;52.60;;;;;;4995342;28;87914;-78
2022/08/03 04:25:19;;;;;;;2.15;1.60;;;25.40;52.60;;;;;;4993903;28;88826;-78
2022/08/03 04:27:47;;;;;;;1.10;1.00;;;25.40;52.70;;;;;;4994727;28;87436;-78
2022/08/03 04:30:13;;;;;;;1.90;1.33;;;25.40;52.60;;;;;;4993793;28;88897;-78
2022/08/03 04:32:40;;;;;;;1.67;1.55;;;25.40;52.60;;;;;;4994730;28;88329;-78
2022/08/03 04:35:07;;;;;;;1.30;1.00;;;25.40;52.60;;;;;;4994557;28;87349;-78
2022/08/03 04:37:42;;;;;;;1.20;1.10;;;25.40;52.60;;;;;;4994164;28;88542;-78
2022/08/03 04:40:13;;;;;;;1.85;1.33;;;25.40;52.60;;;;;;4993377;28;88121;-78
2022/08/03 04:42:40;;;;;;;1.50;1.40;;;25.40;52.60;;;;;;4994876;28;87825;-78
2022/08/03 04:45:10;;;;;;;1.40;1.30;;;25.40;52.70;;;;;;4993822;28;87077;-78
2022/08/03 04:47:37;;;;;;;1.27;1.13;;;25.40;52.90;;;;;;4993194;28;87408;-78
2022/08/03 04:50:05;;;;;;;1.20;1.10;;;25.40;52.70;;;;;;4993510;28;88471;-78
2022/08/03 04:52:31;;;;;;;1.45;1.20;;;25.40;52.80;;;;;;4994310;28;89433;-78
2022/08/03 04:54:57;;;;;;;1.27;1.17;;;25.40;52.90;;;;;;4994653;28;87348;-79
2022/08/03 04:57:23;;;;;;;1.30;1.15;;;25.40;52.70;;;;;;4994041;28;87144;-78
2022/08/03 04:59:53;;;;;;;1.42;1.30;;;25.40;52.70;;;;;;4994460;28;87418;-78
2022/08/03 05:02:19;;;;;;;2.00;1.38;;;25.40;52.80;;;;;;4991556;28;88065;-78
2022/08/03 05:04:45;;;;;;;1.42;1.15;;;25.40;52.60;;;;;;4994249;28;87490;-78
2022/08/03 05:07:15;;;;;;;2.03;1.00;;;25.40;52.50;;;;;;4994217;28;86597;-79
2022/08/03 05:09:41;;;;;;;1.40;1.30;;;25.50;52.70;;;;;;4993254;28;89357;-78
2022/08/03 05:12:07;;;;;;;1.30;1.20;;;25.50;52.40;;;;;;4993487;28;88519;-79
2022/08/03 05:14:36;;;;;;;1.80;1.40;;;25.60;52.60;;;;;;4993202;28;88230;-78
2022/08/03 05:17:02;;;;;;;;;;;25.60;52.50;;;;;;4994263;28;87417;-78
2022/08/03 05:19:27;;;;;;;1.33;1.23;;;25.60;52.50;;;;;;4994280;28;88278;-78
2022/08/03 05:21:53;;;;;;;1.55;1.10;;;25.60;52.30;;;;;;4993156;28;88123;-78
2022/08/03 05:24:19;;;;;;;1.73;1.33;;;25.60;52.40;;;;;;4993240;28;87675;-78
2022/08/03 05:26:44;;;;;;;1.75;1.20;;;25.60;52.50;;;;;;4994040;28;87187;-79
2022/08/03 05:29:10;;;;;;;1.30;1.20;;;25.60;52.30;;;;;;4990108;28;88976;-78
2022/08/03 05:31:35;;;;;;;1.77;1.20;;;25.70;52.30;;;;;;4990929;28;87283;-78
2022/08/03 05:34:01;;;;;;;1.42;1.33;;;25.70;52.40;;;;;;4990832;28;87693;-78
2022/08/03 05:36:26;;;;;;;3.90;1.50;;;25.70;52.50;;;;;;4990610;28;87547;-78
2022/08/03 05:38:52;;;;;;;4.10;1.70;;;25.80;52.60;;;;;;4990176;28;88974;-78
2022/08/03 05:41:18;;;;;;;3.58;1.42;;;25.80;53.70;;;;;;4990088;28;91016;-78
2022/08/03 05:43:44;;;;;;;4.80;1.60;;;25.70;54.60;;;;;;4990667;28;87097;-78
2022/08/03 05:46:09;;;;;;;5.25;1.77;;;25.70;54.90;;;;;;4990692;28;87293;-78
2022/08/03 05:48:35;;;;;;;118.45;21.65;;;25.70;55.00;;;;;;4990140;28;88017;-79
2022/08/03 05:51:00;;;;;;;72.95;12.68;;;25.60;55.70;;;;;;4989160;28;87933;-78
2022/08/03 05:53:26;;;;;;;49.20;10.25;;;25.70;55.90;;;;;;4989635;28;87074;-78
2022/08/03 05:55:54;;;;;;;28.40;6.32;;;25.60;56.40;;;;;;4989260;28;87622;-77
2022/08/03 05:58:19;;;;;;;19.52;4.90;;;25.70;56.30;;;;;;4989858;28;88677;-78
2022/08/03 06:00:45;;;;;;;16.45;3.75;;;25.70;56.10;;;;;;4992297;28;88292;-78
2022/08/03 06:03:10;;;;;;;11.07;3.42;;;25.70;56.10;;;;;;4992010;28;87998;-78
2022/08/03 06:05:36;;;;;;;11.15;3.47;;;25.70;56.20;;;;;;4990760;28;87536;-78
2022/08/03 06:08:04;;;;;;;8.60;2.65;;;25.80;56.30;;;;;;4990289;28;89569;-78
2022/08/03 06:10:30;;;;;;;15.05;2.50;;;25.80;55.70;;;;;;4991243;28;87934;-78
2022/08/03 06:12:56;;;;;;;10.55;2.30;;;25.90;55.90;;;;;;4993810;28;87179;-77
2022/08/03 06:15:21;;;;;;;5.85;1.73;;;25.90;55.90;;;;;;4994236;28;86972;-78
2022/08/03 06:17:48;;;;;;;10.60;2.33;;;25.90;55.70;;;;;;4990499;28;88478;-79
2022/08/03 06:20:18;;;;;;;7.18;1.90;;;25.90;55.90;;;;;;4993352;28;86894;-78
2022/08/03 06:22:45;;;;;;;7.28;1.90;;;25.90;55.90;;;;;;4993366;28;87944;-79
2022/08/03 06:25:11;;;;;;;6.97;1.90;;;25.90;55.70;;;;;;4992355;28;87635;-79
2022/08/03 06:27:38;;;;;;;4.05;1.85;;;25.90;55.70;;;;;;4990914;28;89503;-80
2022/08/03 06:30:05;;;;;;;4.05;2.00;;;25.90;55.80;;;;;;4991440;28;88160;-79
2022/08/03 06:32:32;;;;;;;7.90;1.80;;;25.80;56.00;;;;;;4991631;28;87581;-78
2022/08/03 06:34:58;;;;;;;9.77;1.67;;;25.80;56.00;;;;;;4994709;28;87005;-78
2022/08/03 06:37:25;;;;;;;7.88;1.70;;;25.80;56.20;;;;;;4995633;28;87608;-78
2022/08/03 06:39:51;;;;;;;10.93;1.95;;;25.80;56.50;;;;;;4994390;28;88466;-78
2022/08/03 06:42:17;;;;;;;7.28;2.50;;;25.90;56.60;;;;;;4994969;28;87048;-79
2022/08/03 06:44:43;;;;;;;9.95;2.00;;;25.90;56.40;;;;;;4995222;28;86908;-79
2022/08/03 06:47:08;;;;;;;8.60;2.40;;;26.00;56.90;;;;;;4995652;28;88083;-78
2022/08/03 06:49:34;;;;;;;6.25;2.30;;;26.00;56.50;;;;;;4994206;28;87522;-78
2022/08/03 06:52:00;;;;;;;5.40;2.05;;;26.00;56.50;;;;;;4996118;28;87966;-78
2022/08/03 06:54:25;;;;;;;7.90;2.05;;;25.90;56.60;;;;;;4996530;28;86930;-79
2022/08/03 06:56:51;;;;;;;5.90;1.63;;;25.90;56.50;;;;;;4995192;28;88432;-78
2022/08/03 06:59:17;;;;;;;6.80;1.67;;;26.00;56.70;;;;;;4993397;28;88152;-78
2022/08/03 07:01:42;;;;;;;7.13;1.90;;;26.10;56.30;;;;;;4994328;28;87241;-77
2022/08/03 07:04:08;;;;;;;6.47;2.10;;;26.10;56.30;;;;;;4994049;28;88928;-79
2022/08/03 07:06:34;;;;;;;7.82;2.67;;;26.10;56.30;;;;;;4993402;28;88243;-78
2022/08/03 07:08:59;;;;;;;10.75;2.28;;;26.10;55.90;;;;;;4995392;28;87360;-79
2022/08/03 07:11:27;;;;;;;5.68;1.55;;;26.10;56.10;;;;;;4996926;28;87879;-79
2022/08/03 07:13:53;;;;;;;9.10;1.90;;;26.10;56.30;;;;;;4997404;28;86909;-79
2022/08/03 07:16:18;;;;;;;6.32;2.08;;;26.10;56.80;;;;;;4998527;28;90491;-80
2022/08/03 07:18:44;;;;;;;9.27;2.00;;;26.10;57.40;;;;;;4997964;28;88743;-83
2022/08/03 07:21:11;;;;;;;11.75;2.22;;;26.20;56.70;;;;;;5000555;28;87594;-83
2022/08/03 07:23:37;;;;;;;11.02;2.40;;;26.20;56.80;;;;;;4998437;28;87461;-83
2022/08/03 07:26:03;;;;;;;13.55;2.25;;;26.20;56.60;;;;;;4999241;28;88478;-83
2022/08/03 07:28:28;;;;;;;8.25;2.38;;;26.20;56.90;;;;;;4997791;28;88740;-82
2022/08/03 07:30:54;;;;;;;9.57;2.22;;;26.30;57.00;;;;;;4999314;28;87389;-83
2022/08/03 07:33:20;;;;;;;4.60;1.90;;;26.20;57.00;;;;;;4998745;28;87566;-83
2022/08/03 07:35:45;;;;;;;6.53;1.92;;;26.10;56.90;;;;;;4999301;28;88379;-83
2022/08/03 07:38:11;;;;;;;8.80;2.50;;;26.00;57.00;;;;;;4999095;28;87529;-83
2022/08/03 07:40:37;;;;;;;9.30;2.00;;;26.00;57.30;;;;;;4998578;28;88313;-83
2022/08/03 07:43:03;;;;;;;8.93;2.28;;;26.00;57.40;;;;;;4998698;28;87164;-83
2022/08/03 07:45:30;;;;;;;11.98;2.53;;;26.00;57.20;;;;;;4999425;28;87671;-83
2022/08/03 07:47:56;;;;;;;9.55;2.53;;;26.00;57.20;;;;;;4999316;28;87309;-84
2022/08/03 07:50:21;;;;;;;12.07;2.65;;;26.00;57.90;;;;;;4998817;28;86830;-83
2022/08/03 07:52:48;;;;;;;9.55;2.47;;;26.00;57.20;;;;;;4999542;28;87635;-83
2022/08/03 07:55:18;;;;;;;8.70;2.60;;;25.90;57.10;;;;;;4997352;28;91256;-83
2022/08/03 07:57:44;;;;;;;5.45;2.50;;;26.00;57.80;;;;;;4999948;28;87365;-83
2022/08/03 08:00:18;;;;;;;10.80;2.58;;;25.90;57.10;;;;;;4998392;28;87957;-83
2022/08/03 08:02:44;;;;;;;4.10;2.03;;;25.90;56.90;;;;;;4998380;28;87543;-83
2022/08/03 08:05:11;;;;;;;7.47;2.30;;;25.90;56.90;;;;;;4997699;28;89507;-83
2022/08/03 08:07:37;;;;;;;8.52;2.40;;;25.90;56.90;;;;;;4998770;28;89079;-84
2022/08/03 08:10:05;;;;;;;5.25;2.05;;;25.90;57.10;;;;;;4998557;28;87364;-83
2022/08/03 08:12:31;;;;;;;7.43;2.28;;;25.80;56.90;;;;;;4998797;28;86908;-84
2022/08/03 08:14:57;;;;;;;6.22;2.42;;;25.80;57.00;;;;;;4999493;28;87563;-84
2022/08/03 08:17:22;;;;;;;7.50;2.60;;;25.80;57.00;;;;;;4998015;28;87750;-83
2022/08/03 08:19:48;;;;;;;6.85;2.08;;;25.80;57.00;;;;;;4999024;28;87441;-82
2022/08/03 08:22:13;;;;;;;9.60;2.20;;;25.80;57.00;;;;;;4997299;28;87151;-83
2022/08/03 08:24:39;;;;;;;5.88;1.92;;;25.80;57.00;;;;;;4998641;28;88608;-83
2022/08/03 08:27:05;;;;;;;7.57;2.13;;;25.80;56.90;;;;;;4997036;28;87501;-83
2022/08/03 08:29:30;;;;;;;10.60;2.47;;;25.80;56.90;;;;;;4997171;28;88161;-84
2022/08/03 08:31:56;;;;;;;7.57;2.20;;;25.80;56.80;;;;;;4998210;28;87162;-84
2022/08/03 08:34:21;;;;;;;5.30;1.92;;;25.80;56.90;;;;;;4998362;28;88146;-83
2022/08/03 08:36:47;;;;;;;6.15;2.03;;;25.80;56.70;;;;;;4998819;28;87753;-84
2022/08/03 08:39:12;;;;;;;5.65;1.92;;;25.80;56.60;;;;;;4999356;28;86929;-83
2022/08/03 08:41:38;;;;;;;4.82;2.08;;;25.80;56.80;;;;;;4998985;28;87282;-83
2022/08/03 08:44:06;;;;;;;7.85;2.13;;;25.80;56.50;;;;;;4998084;28;87656;-83
2022/08/03 08:46:33;;;;;;;5.77;2.13;;;25.80;56.50;;;;;;4998804;28;88949;-84
2022/08/03 08:48:59;;;;;;;7.15;1.90;;;25.80;56.50;;;;;;5013126;28;87374;-82
2022/08/03 08:51:33;;;;;;;4.78;1.98;;;25.80;56.50;;;;;;4998321;28;87488;-83
2022/08/03 08:54:02;;;;;;;9.02;2.25;;;25.80;56.60;;;;;;4996697;28;91048;-83
2022/08/03 08:56:28;;;;;;;4.70;1.85;;;25.80;56.40;;;;;;4997177;28;88342;-84
2022/08/03 08:59:00;;;;;;;6.63;1.90;;;25.80;56.50;;;;;;4997934;28;87157;-84
2022/08/03 09:01:26;;;;;;;4.22;1.90;;;25.80;56.50;;;;;;4998565;28;87288;-83
2022/08/03 09:03:53;;;;;;;5.40;2.08;;;25.80;56.50;;;;;;4997854;28;88221;-83
2022/08/03 09:06:22;;;;;;;3.50;1.85;;;25.80;56.60;;;;;;4997000;28;87865;-83
2022/08/03 09:08:47;;;;;;;;;;;25.80;56.40;;;;;;4998549;28;87101;-83
2022/08/03 09:11:13;;;;;;;4.93;1.70;;;25.80;56.40;;;;;;4999628;28;86296;-84
2022/08/03 09:13:39;;;;;;;7.32;1.90;;;25.80;56.50;;;;;;4997044;28;88411;-83
2022/08/03 09:16:18;;;;;;;3.88;1.67;;;25.80;56.50;;;;;;4997588;28;87485;-83
2022/08/03 09:18:50;;;;;;;4.95;2.22;;;25.80;56.40;;;;;;4998112;28;87889;-83
2022/08/03 09:21:25;;;;;;;4.35;2.10;;;25.80;56.40;;;;;;4998103;28;86917;-82
2022/08/03 09:23:55;;;;;;;4.03;1.60;;;25.80;56.20;;;;;;4997965;28;89559;-82
2022/08/03 09:26:26;;;;;;;4.40;2.08;;;25.80;56.10;;;;;;4997800;28;87320;-83
2022/08/03 09:29:04;;;;;;;3.58;1.80;;;25.80;56.30;;;;;;4997639;28;87747;-83
2022/08/03 09:31:35;;;;;;;4.47;1.63;;;25.80;55.90;;;;;;4997616;28;87647;-82
2022/08/03 09:34:06;;;;;;;3.10;1.77;;;25.80;56.10;;;;;;4996141;28;88007;-83
2022/08/03 09:36:40;;;;;;;3.03;1.70;;;25.80;56.20;;;;;;4995518;28;88705;-84
2022/08/03 09:39:11;;;;;;;4.88;1.80;;;25.90;56.10;;;;;;4997441;28;87352;-84
2022/08/03 09:41:42;;;;;;;6.85;1.88;;;25.90;56.00;;;;;;4995514;28;87620;-83
2022/08/03 09:44:08;;;;;;;3.90;1.45;;;25.90;56.10;;;;;;4996329;28;89185;-84
2022/08/03 09:46:53;;;;;;;3.55;1.70;;;25.90;56.10;;;;;;4997172;28;89795;-83
2022/08/03 09:49:19;;;;;;;3.92;1.60;;;25.80;56.10;;;;;;4997336;28;87329;-83
2022/08/03 09:51:45;;;;;;;4.78;1.77;;;25.90;55.90;;;;;;4997046;28;88287;-83
2022/08/03 09:54:10;;;;;;;2.20;1.60;;;25.90;56.00;;;;;;4997027;28;89173;-83
2022/08/03 09:56:40;;;;;;;3.53;1.83;;;25.90;56.00;;;;;;4996810;28;88195;-84
2022/08/03 09:59:06;;;;;;;3.88;1.50;;;25.90;55.90;;;;;;4996650;28;86941;-83
2022/08/03 10:01:36;;;;;;;3.03;1.60;;;25.90;56.00;;;;;;4997457;28;87695;-83
2022/08/03 10:04:02;;;;;;;3.45;1.70;;;25.90;55.90;;;;;;4996487;28;88175;-82
2022/08/03 10:06:27;;;;;;;4.35;1.80;;;25.90;55.90;;;;;;4996768;28;87492;-84
2022/08/03 10:09:12;;;;;;;3.17;1.60;;;25.90;55.90;;;;;;4995761;28;87955;-83
2022/08/03 10:11:39;;;;;;;2.88;1.80;;;25.90;56.00;;;;;;4996770;28;90150;-83
2022/08/03 10:14:08;;;;;;;4.80;2.08;;;25.90;55.80;;;;;;4996681;28;90352;-83
2022/08/03 10:16:38;;;;;;;7.03;1.75;;;25.90;55.90;;;;;;4993552;28;89509;-85
2022/08/03 10:19:06;;;;;;;3.13;1.65;;;25.90;55.90;;;;;;4994236;28;87475;-85
2022/08/03 10:21:34;;;;;;;4.68;1.55;;;26.00;55.80;;;;;;4989007;28;87923;-86
2022/08/03 10:24:05;;;;;;;2.67;1.48;;;26.00;55.70;;;;;;4991090;28;88528;-86
2022/08/03 10:26:42;;;;;;;3.58;1.30;;;26.10;55.70;;;;;;4990617;28;89175;-85
2022/08/03 10:29:13;;;;;;;10.07;2.03;;;26.20;55.80;;;;;;4990331;28;87253;-84
2022/08/03 10:31:43;;;;;;;5.85;2.05;;;26.20;55.70;;;;;;4986774;28;89416;-85
2022/08/03 10:34:18;;;;;;;4.60;1.92;;;26.20;56.00;;;;;;4987241;28;89036;-86
2022/08/03 10:36:45;;;;;;;4.60;2.45;;;26.20;56.10;;;;;;4989172;28;87378;-85
2022/08/03 10:39:13;;;;;;;8.15;3.30;;;26.20;56.10;;;;;;4988964;28;87984;-86
2022/08/03 10:41:45;;;;;;;6.97;2.80;;;26.30;56.60;;;;;;4986901;28;87540;-85
2022/08/03 10:44:17;;;;;;;6.80;3.20;;;26.40;56.40;;;;;;4986747;28;89549;-85
2022/08/03 10:46:45;;;;;;;6.57;2.40;;;26.50;56.30;;;;;;4991398;28;87333;-86
2022/08/03 10:49:15;;;;;;;8.48;2.88;;;26.60;56.10;;;;;;4991392;28;87226;-86
2022/08/03 10:51:43;;;;;;;8.52;2.72;;;26.60;56.10;;;;;;4992250;28;87984;-86
2022/08/03 10:57:47;;;;;;;7.05;2.40;;;26.50;56.30;;;;;;4930865;28;87393;-86
2022/08/03 11:00:15;;;;;;;7.18;2.80;;;26.60;56.20;;;;;;4931776;28;89589;-86
2022/08/03 11:03:07;;;;;;;6.85;3.22;;;26.60;56.50;;;;;;4934112;28;87007;-87
2022/08/03 11:05:36;;;;;;;7.20;3.05;;;26.60;56.70;;;;;;4932620;28;88058;-86
2022/08/03 11:08:17;;;;;;;4.95;2.13;;;26.60;56.60;;;;;;4931100;28;88675;-84
2022/08/03 11:10:42;;;;;;;8.77;2.50;;;26.70;56.80;;;;;;4949951;28;87062;-85
2022/08/03 11:13:13;;;;;;;3.97;1.85;;;26.70;56.90;;;;;;4946558;28;87722;-83
2022/08/03 11:15:41;;;;;;;6.35;2.28;;;26.70;56.50;;;;;;4952087;28;88489;-82
2022/08/03 11:18:09;;;;;;;5.13;2.10;;;26.80;56.70;;;;;;4952590;28;88016;-82
2022/08/03 11:20:48;;;;;;;10.07;2.13;;;27.00;56.20;;;;;;4953395;28;87285;-82
2022/08/03 11:23:15;;;;;;;5.28;2.20;;;27.00;56.10;;;;;;4952515;28;87523;-82
2022/08/03 11:26:14;;;;;;;10.48;2.00;;;26.90;56.10;;;;;;4951342;28;90016;-82
2022/08/03 11:28:41;;;;;;;4.37;1.70;;;27.00;56.10;;;;;;4911826;28;88282;-83
2022/08/03 11:31:29;;;;;;;3.47;1.85;;;27.10;56.10;;;;;;4913259;28;87235;-82
2022/08/03 11:34:12;;;;;;;4.47;1.90;;;27.10;55.90;;;;;;4882514;28;87960;-82
2022/08/03 11:37:15;;;;;;;8.63;1.95;;;27.00;55.90;;;;;;4913501;28;87143;-82
2022/08/03 11:39:45;;;;;;;4.68;1.80;;;27.10;55.70;;;;;;4915076;28;87769;-82
2022/08/03 11:42:23;;;;;;;7.38;1.65;;;27.10;55.70;;;;;;4913671;28;87864;-82
2022/08/03 11:44:58;;;;;;;6.35;1.70;;;27.20;55.70;;;;;;4915717;28;87414;-82
2022/08/03 11:47:28;;;;;;;8.45;2.08;;;27.20;55.60;;;;;;4919245;28;87584;-82
2022/08/03 11:49:57;;;;;;;4.20;1.42;;;27.20;55.60;;;;;;4918065;28;88079;-82
2022/08/03 11:52:24;;;;;;;7.30;1.70;;;27.20;55.40;;;;;;4916574;28;88209;-82
2022/08/03 11:54:53;;;;;;;5.43;2.10;;;27.30;55.60;;;;;;4918795;28;87206;-82
2022/08/03 11:57:34;;;;;;;5.07;1.48;;;27.30;55.30;;;;;;4918177;28;87873;-82
2022/08/03 11:59:59;;;;;;;6.35;1.77;;;27.30;55.20;;;;;;4918588;28;87902;-83
2022/08/03 12:02:25;;;;;;;3.70;1.70;;;27.30;55.30;;;;;;4918868;28;86943;-80
2022/08/03 12:05:00;;;;;;;5.88;1.55;;;27.30;55.40;;;;;;4933995;28;87462;-80
2022/08/03 12:07:28;;;;;;;7.03;1.75;;;27.30;55.20;;;;;;4934288;28;88588;-81
2022/08/03 12:10:07;;;;;;;8.15;1.58;;;27.30;55.30;;;;;;4909688;28;87870;-81
2022/08/03 12:12:32;;;;;;;;;;;27.30;55.20;;;;;;4999637;28;87277;-82
2022/08/03 12:14:58;;;;;;;4.32;1.40;;;27.30;55.40;;;;;;4997849;28;89030;-83
2022/08/03 12:17:32;;;;;;;3.83;1.70;;;27.40;55.40;;;;;;4999363;28;89163;-83
2022/08/03 12:19:58;;;;;;;3.72;1.50;;;27.40;55.30;;;;;;5000571;28;89021;-83
2022/08/03 12:22:36;;;;;;;3.40;1.48;;;27.40;55.20;;;;;;4999460;28;87501;-81
2022/08/03 12:25:02;;;;;;;4.20;1.40;;;27.40;55.20;;;;;;4998602;28;87434;-81
2022/08/03 12:27:28;;;;;;;6.85;1.50;;;27.40;54.90;;;;;;4997573;28;90094;-82
2022/08/03 12:29:56;;;;;;;4.72;1.52;;;27.40;54.90;;;;;;4994222;28;87566;-82
2022/08/03 12:32:22;;;;;;;7.18;1.70;;;27.40;55.00;;;;;;4997380;28;87257;-84
2022/08/03 12:34:49;;;;;;;6.40;1.73;;;27.40;55.10;;;;;;4999134;28;87874;-83
2022/08/03 12:37:19;;;;;;;3.92;1.55;;;27.50;54.70;;;;;;4999416;28;88117;-83
2022/08/03 12:39:53;;;;;;;6.15;1.50;;;27.50;54.70;;;;;;4998823;28;87440;-83
2022/08/03 12:42:18;;;;;;;3.85;1.63;;;27.50;54.70;;;;;;4997803;28;87879;-83
2022/08/03 12:44:45;;;;;;;5.60;1.20;;;27.50;54.90;;;;;;4993935;28;87267;-82
2022/08/03 12:47:11;;;;;;;3.97;1.70;;;27.60;54.80;;;;;;4993497;28;88912;-84
2022/08/03 12:49:47;;;;;;;4.72;1.20;;;27.60;55.00;;;;;;4998321;28;87837;-83
2022/08/03 12:52:14;;;;;;;3.70;1.27;;;27.50;54.80;;;;;;4995890;28;87198;-82
2022/08/03 12:54:39;;;;;;;5.35;1.20;;;27.50;55.20;;;;;;4997870;28;86962;-82
2022/08/03 12:57:09;;;;;;;3.10;1.38;;;27.50;54.90;;;;;;4998675;28;87958;-84
2022/08/03 12:59:44;;;;;;;3.08;1.20;;;27.60;54.90;;;;;;4999080;28;89618;-83
2022/08/03 13:02:13;;;;;;;5.03;1.65;;;27.50;54.80;;;;;;4997498;28;87355;-84
2022/08/03 13:04:38;;;;;;;5.75;1.90;;;27.50;55.10;;;;;;4997148;28;87216;-83
2022/08/03 13:07:07;;;;;;;4.13;1.38;;;27.60;55.20;;;;;;4996033;28;88581;-83